Time;durP1;ratioP1;P1;durP2;ratioP2;P2;SDS_P1;SDS_P2;PMS_P1;PMS_P2;Temp;Humidity;BMP_temperature;BMP_pressure;BME280_temperature;BME280_humidity;BME280_pressure;Samples;Min_cycle;Max_cycle;Signal;HPM_P1;HPM_P2
2022/08/13 00:01:23;;;;;;;1.70;1.60;;;;;;;22.00;35.87;99254.03;4968416;28;20473;-79
2022/08/13 00:03:55;;;;;;;2.37;1.50;;;;;;;21.93;36.45;99253.91;4967929;28;20300;-79
2022/08/13 00:09:14;;;;;;;2.10;1.70;;;;;;;21.78;36.80;99251.19;4936345;28;20493;-79
2022/08/13 00:14:31;;;;;;;1.83;1.70;;;;;;;21.60;37.33;99254.16;4967000;28;20917;-79
2022/08/13 00:16:58;;;;;;;3.73;1.93;;;;;;;21.56;37.40;99246.66;4966551;28;20465;-79
2022/08/13 00:19:26;;;;;;;2.23;1.40;;;;;;;21.54;37.33;99243.34;4966596;28;21129;-79
2022/08/13 00:21:55;;;;;;;1.73;1.63;;;;;;;21.45;37.34;99247.91;4966687;28;21016;-79
2022/08/13 00:24:20;;;;;;;4.10;2.00;;;;;;;21.38;37.73;99244.25;4966706;28;20528;-79
2022/08/13 00:26:46;;;;;;;1.50;1.40;;;;;;;21.33;37.84;99244.78;4966050;28;20787;-79
2022/08/13 00:29:11;;;;;;;2.50;2.00;;;;;;;21.29;37.98;99231.94;4964856;28;20292;-78
2022/08/13 00:31:37;;;;;;;1.90;1.60;;;;;;;21.19;38.42;99237.50;4966683;28;20264;-79
2022/08/13 00:34:03;;;;;;;2.50;1.90;;;;;;;21.17;38.81;99239.50;4965656;28;20509;-79
2022/08/13 00:36:31;;;;;;;2.57;1.87;;;;;;;21.08;39.01;99238.72;4965545;28;20232;-79
2022/08/13 00:38:57;;;;;;;1.97;1.83;;;;;;;21.03;38.99;99245.59;4966394;28;20472;-80
2022/08/13 00:41:38;;;;;;;3.77;2.20;;;;;;;20.99;39.13;99234.44;4966909;28;20469;-78
2022/08/13 00:44:11;;;;;;;2.60;1.50;;;;;;;20.95;39.29;99239.28;4966598;28;20478;-79
2022/08/13 00:46:38;;;;;;;1.83;1.73;;;;;;;20.94;39.44;99237.59;4965691;28;20465;-79
2022/08/13 00:49:05;;;;;;;2.07;1.87;;;;;;;20.94;39.54;99237.59;4966637;28;20444;-79
2022/08/13 00:51:33;;;;;;;4.07;2.00;;;;;;;20.91;39.56;99237.13;4966687;28;20464;-78
2022/08/13 00:54:00;;;;;;;3.10;2.00;;;;;;;20.85;39.79;99237.84;4966221;28;20457;-79
2022/08/13 00:56:26;;;;;;;3.37;1.70;;;;;;;20.77;39.74;99236.03;4965227;28;20476;-78
2022/08/13 00:58:52;;;;;;;2.33;1.60;;;;;;;20.71;40.20;99237.53;4966547;28;20472;-79
2022/08/13 01:01:24;;;;;;;4.50;1.73;;;;;;;20.66;40.32;99239.06;4966790;28;20869;-80
2022/08/13 01:03:50;;;;;;;1.90;1.80;;;;;;;20.65;40.43;99234.72;4966228;28;20447;-79
2022/08/13 01:06:18;;;;;;;3.67;1.80;;;;;;;20.69;40.37;99236.06;4964800;28;20479;-78
2022/08/13 01:08:43;;;;;;;4.13;2.77;;;;;;;20.66;40.61;99239.06;4965192;28;20448;-79
2022/08/13 01:11:13;;;;;;;3.17;1.90;;;;;;;20.53;40.67;99251.09;4966761;28;20467;-78
2022/08/13 01:13:41;;;;;;;5.07;2.33;;;;;;;20.39;41.19;99235.75;4965188;28;20609;-79
2022/08/13 01:16:13;;;;;;;4.63;1.80;;;;;;;20.27;41.30;99242.44;4964614;28;20499;-78
2022/08/13 01:18:44;;;;;;;2.63;2.43;;;;;;;20.18;41.80;99240.78;4966452;28;20463;-80
2022/08/13 01:21:15;;;;;;;1.90;1.80;;;;;;;20.14;41.75;99242.94;4966337;28;20498;-79
2022/08/13 01:23:45;;;;;;;2.17;1.97;;;;;;;20.09;41.96;99239.94;4965328;28;20463;-79
2022/08/13 01:26:13;;;;;;;2.57;2.07;;;;;;;20.01;42.16;99246.13;4965313;28;20544;-79
2022/08/13 01:28:40;;;;;;;1.60;1.50;;;;;;;19.98;42.38;99241.13;4964500;28;20478;-79
2022/08/13 01:31:06;;;;;;;1.80;1.70;;;;;;;19.91;42.57;99239.31;4966119;28;20447;-79
2022/08/13 01:33:36;;;;;;;2.05;1.90;;;;;;;19.89;42.80;99236.78;4963955;28;20489;-79
2022/08/13 01:36:04;;;;;;;1.93;1.83;;;;;;;19.73;43.14;99240.28;4963905;28;20739;-78
2022/08/13 01:38:30;;;;;;;6.13;1.80;;;;;;;19.50;43.96;99232.06;4961199;28;20739;-79
2022/08/13 01:40:56;;;;;;;3.87;2.30;;;;;;;19.41;44.31;99249.84;4965947;28;20495;-79
2022/08/13 01:43:25;;;;;;;1.80;1.70;;;;;;;19.29;44.48;99229.88;4966412;28;20820;-80
2022/08/13 01:45:52;;;;;;;5.10;3.20;;;;;;;19.18;44.85;99235.50;4963946;28;20907;-79
2022/08/13 01:51:18;;;;;;;2.13;1.90;;;;;;;19.03;44.92;99235.28;4965622;28;20559;-78
2022/08/13 01:53:46;;;;;;;2.53;2.33;;;;;;;18.95;45.15;99224.59;4966011;28;20461;-79
2022/08/13 01:56:13;;;;;;;2.63;2.03;;;;;;;18.89;45.64;99247.34;4965731;28;20472;-80
2022/08/13 01:58:39;;;;;;;2.60;1.87;;;;;;;18.79;45.71;99241.31;4964868;28;20529;-80
2022/08/13 02:01:05;;;;;;;4.73;1.90;;;;;;;18.81;45.38;99235.84;4966016;28;20495;-78
2022/08/13 02:03:30;;;;;;;2.60;2.30;;;;;;;18.85;45.54;99239.84;4964568;28;20509;-79
2022/08/13 02:05:57;;;;;;;3.13;2.03;;;;;;;18.86;46.04;99238.88;4965181;28;20237;-79
2022/08/13 02:08:24;;;;;;;3.00;1.97;;;;;;;18.87;45.67;99232.53;4965809;28;20229;-80
2022/08/13 02:10:52;;;;;;;2.47;2.27;;;;;;;18.91;45.54;99241.88;4969041;28;20451;-79
2022/08/13 02:13:21;;;;;;;2.30;1.83;;;;;;;18.93;45.44;99239.88;4968688;28;20502;-80
2022/08/13 02:15:49;;;;;;;2.47;1.83;;;;;;;18.95;45.40;99222.75;4967664;28;20475;-79
2022/08/13 02:18:17;;;;;;;2.20;1.90;;;;;;;18.97;45.27;99226.09;4967314;28;20471;-78
2022/08/13 02:20:52;;;;;;;3.40;2.30;;;;;;;18.96;45.15;99234.25;4968540;28;20499;-80
2022/08/13 02:23:25;;;;;;;1.97;1.87;;;;;;;18.93;45.38;99239.88;4969323;28;20990;-79
2022/08/13 02:25:51;;;;;;;2.37;2.10;;;;;;;18.87;45.71;99240.53;4967873;28;21100;-79
2022/08/13 02:28:19;;;;;;;2.23;2.03;;;;;;;18.79;45.99;99242.19;4966835;28;20988;-79
2022/08/13 02:30:49;;;;;;;2.25;2.05;;;;;;;18.78;45.93;99242.31;4969093;28;20484;-79
2022/08/13 02:33:15;;;;;;;1.97;1.83;;;;;;;18.78;46.04;99237.00;4968991;28;20294;-79
2022/08/13 02:35:45;;;;;;;3.47;2.70;;;;;;;18.74;46.27;99240.94;4968554;28;20487;-78
2022/08/13 02:38:11;;;;;;;2.57;2.10;;;;;;;18.67;46.19;99230.09;4966876;28;20255;-79
2022/08/13 02:43:25;;;;;;;2.63;1.80;;;;;;;18.62;46.37;99247.53;4968710;28;20475;-78
2022/08/13 02:45:53;;;;;;;2.70;2.00;;;;;;;18.57;46.54;99245.34;4968330;28;20473;-79
2022/08/13 02:48:19;;;;;;;2.90;1.57;;;;;;;18.50;46.29;99242.50;4949299;28;20224;-80
2022/08/13 02:50:45;;;;;;;2.60;1.93;;;;;;;18.52;46.27;99245.84;4967982;28;20530;-79
2022/08/13 02:53:16;;;;;;;2.03;1.93;;;;;;;18.50;46.21;99244.31;4968590;28;20460;-78
2022/08/13 02:55:41;;;;;;;1.77;1.67;;;;;;;18.44;46.43;99244.91;4967996;28;20519;-79
2022/08/13 02:58:08;;;;;;;1.87;1.73;;;;;;;18.40;46.39;99247.06;4966712;28;20499;-78
2022/08/13 03:00:36;;;;;;;3.73;1.97;;;;;;;18.37;46.33;99247.38;4967374;28;20276;-79
2022/08/13 03:03:03;;;;;;;2.23;1.90;;;;;;;18.42;46.37;99244.28;4966565;28;20562;-79
2022/08/13 03:05:30;;;;;;;1.83;1.73;;;;;;;18.47;46.14;99242.81;4968445;28;20475;-80
2022/08/13 03:07:57;;;;;;;2.37;2.20;;;;;;;18.55;46.23;99247.31;4967478;28;20807;-78
2022/08/13 03:10:26;;;;;;;4.23;2.77;;;;;;;18.54;46.32;99256.28;4967613;28;20241;-79
2022/08/13 03:12:59;;;;;;;2.50;2.30;;;;;;;18.37;47.11;99259.84;4968532;28;20736;-80
2022/08/13 03:15:26;;;;;;;2.00;1.90;;;;;;;18.19;47.50;99255.41;4966753;28;20484;-78
2022/08/13 03:17:52;;;;;;;2.37;2.17;;;;;;;17.90;48.14;99271.59;4966858;28;20879;-79
2022/08/13 03:20:17;;;;;;;3.20;2.60;;;;;;;17.73;48.52;99273.25;4967013;28;21065;-79
2022/08/13 03:23:01;;;;;;;1.87;1.77;;;;;;;17.60;49.01;99270.13;4967943;28;20750;-79
2022/08/13 03:25:29;;;;;;;2.20;2.00;;;;;;;17.59;48.83;99268.47;4967864;28;20302;-79
2022/08/13 03:27:57;;;;;;;2.57;2.10;;;;;;;17.61;48.63;99270.00;4965661;28;20469;-78
2022/08/13 03:30:23;;;;;;;2.50;2.30;;;;;;;17.65;48.44;99274.00;4966538;28;20476;-78
2022/08/13 03:32:51;;;;;;;3.47;1.67;;;;;;;17.66;48.42;99275.69;4968004;28;20467;-79
2022/08/13 03:35:20;;;;;;;2.53;1.93;;;;;;;17.62;48.50;99282.28;4968105;28;20229;-78
2022/08/13 03:37:47;;;;;;;5.57;2.60;;;;;;;17.61;48.54;99279.78;4966399;28;20479;-79
2022/08/13 03:40:15;;;;;;;2.27;2.03;;;;;;;17.59;48.97;99279.09;4967794;28;20494;-78
2022/08/13 03:42:42;;;;;;;2.27;1.70;;;;;;;17.50;49.37;99286.16;4966184;28;20472;-79
2022/08/13 03:45:09;;;;;;;2.23;2.03;;;;;;;17.48;49.38;99286.28;4968401;28;21002;-78
2022/08/13 03:47:35;;;;;;;3.33;2.50;;;;;;;17.49;49.66;99284.47;4967665;28;20456;-78
2022/08/13 03:50:05;;;;;;;2.37;2.17;;;;;;;17.42;49.73;99281.59;4968015;28;20555;-78
2022/08/13 03:52:30;;;;;;;2.20;2.00;;;;;;;17.32;49.97;99285.28;4967447;28;20492;-79
2022/08/13 03:54:57;;;;;;;2.10;2.00;;;;;;;17.21;50.25;99289.81;4966444;28;20505;-78
2022/08/13 03:57:24;;;;;;;3.70;2.90;;;;;;;17.21;50.41;99294.28;4966713;28;20326;-78
2022/08/13 03:59:49;;;;;;;2.43;2.00;;;;;;;17.14;50.72;99294.00;4967906;28;20519;-78
2022/08/13 04:02:16;;;;;;;2.70;2.27;;;;;;;17.12;50.83;99295.16;4966776;28;20488;-77
2022/08/13 04:04:46;;;;;;;2.47;2.27;;;;;;;17.09;50.80;99292.78;4968820;28;20600;-78
2022/08/13 04:07:15;;;;;;;2.33;2.03;;;;;;;17.05;50.81;99294.09;4967066;28;20944;-77
2022/08/13 04:09:41;;;;;;;2.50;2.30;;;;;;;17.05;50.87;99296.72;4967636;28;20498;-79
2022/08/13 04:12:10;;;;;;;3.67;2.20;;;;;;;17.04;50.98;99293.25;4967090;28;20491;-80
2022/08/13 04:14:35;;;;;;;3.10;2.23;;;;;;;17.01;50.93;99293.50;4967620;28;20489;-77
2022/08/13 04:17:01;;;;;;;2.40;2.30;;;;;;;17.02;50.81;99296.03;4966128;28;20553;-78
2022/08/13 04:19:27;;;;;;;3.17;2.70;;;;;;;17.05;50.74;99302.03;4967326;28;20221;-78
2022/08/13 04:21:53;;;;;;;2.70;2.50;;;;;;;17.10;50.52;99294.47;4967203;28;20219;-78
2022/08/13 04:24:18;;;;;;;9.50;3.73;;;;;;;17.12;50.24;99296.00;4965225;28;20577;-79
2022/08/13 04:26:45;;;;;;;2.70;2.40;;;;;;;17.16;50.30;99288.56;4966599;28;20247;-79
2022/08/13 04:29:11;;;;;;;2.77;2.33;;;;;;;17.22;50.24;99293.28;4967400;28;20222;-78
2022/08/13 04:31:37;;;;;;;3.08;2.70;;;;;;;17.30;50.44;99292.53;4966281;28;20603;-79
2022/08/13 04:34:02;;;;;;;2.80;2.60;;;;;;;17.25;50.51;99301.81;4966559;28;20300;-78
2022/08/13 04:36:28;;;;;;;2.20;2.00;;;;;;;17.25;50.40;99296.50;4967058;28;20670;-78
2022/08/13 04:38:53;;;;;;;2.63;2.43;;;;;;;17.29;50.47;99290.88;4965708;28;20248;-79
2022/08/13 04:41:19;;;;;;;3.20;2.23;;;;;;;17.30;50.45;99290.72;4966979;28;20238;-78
2022/08/13 04:43:44;;;;;;;3.37;3.07;;;;;;;17.34;50.42;99301.91;4967094;28;20196;-78
2022/08/13 04:46:10;;;;;;;2.10;1.97;;;;;;;17.35;50.46;99298.25;4966332;28;20232;-79
2022/08/13 04:48:35;;;;;;;2.90;2.70;;;;;;;17.33;50.72;99295.72;4967090;28;20689;-78
2022/08/13 04:51:01;;;;;;;2.87;1.93;;;;;;;17.33;50.94;99301.03;4967291;28;20209;-78
2022/08/13 04:53:35;;;;;;;2.53;2.33;;;;;;;17.38;50.66;99298.78;4966655;28;20247;-78
2022/08/13 04:56:02;;;;;;;2.80;2.57;;;;;;;17.45;50.57;99307.84;4965047;28;20253;-78
2022/08/13 04:58:33;;;;;;;5.33;2.40;;;;;;;17.48;50.71;99317.31;4964607;28;21046;-79
2022/08/13 05:00:59;;;;;;;4.57;2.60;;;;;;;17.47;50.58;99316.50;4966713;28;20891;-78
2022/08/13 05:03:25;;;;;;;4.17;2.33;;;;;;;17.46;50.68;99314.81;4965488;28;20615;-78
2022/08/13 05:05:51;;;;;;;2.90;2.60;;;;;;;17.67;50.30;99311.06;4966079;28;20484;-78
2022/08/13 05:08:17;;;;;;;4.17;2.90;;;;;;;18.12;49.29;99310.19;4964486;28;20263;-78
2022/08/13 05:10:45;;;;;;;2.80;2.50;;;;;;;18.73;47.82;99316.44;4966451;28;20515;-79
2022/08/13 05:13:27;;;;;;;3.53;2.53;;;;;;;19.43;46.47;99309.13;4966983;28;20455;-79
2022/08/13 05:15:58;;;;;;;2.63;2.43;;;;;;;20.07;44.93;99296.13;4966096;28;20998;-78
2022/08/13 05:18:26;;;;;;;2.63;1.83;;;;;;;20.61;43.58;99297.44;4965830;28;20474;-79
2022/08/13 05:20:54;;;;;;;3.07;2.33;;;;;;;20.92;42.82;99294.84;4966735;28;20490;-79
2022/08/13 05:23:21;;;;;;;2.10;1.90;;;;;;;21.24;41.96;99293.06;4967065;28;20657;-79
2022/08/13 05:25:48;;;;;;;4.10;3.07;;;;;;;21.45;41.50;99300.53;5006293;23;20518;-79
2022/08/13 05:28:14;;;;;;;3.00;2.03;;;;;;;21.71;40.99;99293.03;4977953;28;20461;-78
2022/08/13 05:30:39;;;;;;;2.93;2.70;;;;;;;21.87;40.43;99295.59;4988899;28;20458;-79
2022/08/13 05:33:14;;;;;;;3.10;2.80;;;;;;;22.07;39.83;99290.56;4989242;28;21079;-78
2022/08/13 05:35:52;;;;;;;3.60;2.07;;;;;;;22.15;39.68;99300.38;4987871;28;20226;-79
2022/08/13 05:38:22;;;;;;;4.57;2.60;;;;;;;22.20;39.60;99303.38;4989251;28;20471;-79
2022/08/13 05:40:49;;;;;;;3.13;2.23;;;;;;;22.48;38.92;99311.66;4990602;28;20492;-78
2022/08/13 05:43:20;;;;;;;3.67;2.40;;;;;;;23.02;38.29;99305.25;4992977;28;20464;-79
2022/08/13 05:46:00;;;;;;;2.13;1.80;;;;;;;23.42;37.30;99309.28;4993147;28;20500;-79
2022/08/13 05:48:36;;;;;;;3.10;1.83;;;;;;;23.72;36.48;99297.69;4992601;28;20471;-79
2022/08/13 05:51:05;;;;;;;4.20;2.43;;;;;;;24.04;35.91;99297.19;4995774;28;20470;-79
2022/08/13 05:53:32;;;;;;;2.77;2.20;;;;;;;24.53;35.25;99300.09;4999644;28;20506;-79
2022/08/13 05:55:58;;;;;;;2.83;2.63;;;;;;;25.00;34.43;99302.03;4999212;28;20538;-79
2022/08/13 05:58:23;;;;;;;3.67;2.70;;;;;;;25.42;33.74;99289.44;5000100;28;20460;-78
2022/08/13 06:03:33;;;;;;;3.50;3.20;;;;;;;26.30;32.27;99292.09;5000682;28;21027;-79
2022/08/13 06:06:02;;;;;;;3.57;2.27;;;;;;;26.53;31.71;99291.72;5000666;28;20232;-79
2022/08/13 06:08:31;;;;;;;2.27;1.70;;;;;;;26.70;31.47;99286.69;4996253;28;20212;-79
2022/08/13 06:10:59;;;;;;;2.40;2.20;;;;;;;26.85;31.75;99284.59;4999597;28;20460;-79
2022/08/13 06:13:26;;;;;;;3.03;2.13;;;;;;;27.15;31.43;99282.22;5000089;28;20464;-79
2022/08/13 06:15:58;;;;;;;5.53;2.43;;;;;;;27.48;30.64;99273.19;4999054;28;20551;-79
2022/08/13 06:18:32;;;;;;;1.70;1.60;;;;;;;27.88;30.24;99267.59;4998179;28;20531;-79
2022/08/13 06:21:00;;;;;;;3.30;2.30;;;;;;;28.19;29.32;99273.97;4999305;28;20496;-79
2022/08/13 06:23:27;;;;;;;2.70;2.40;;;;;;;28.59;28.92;99268.25;4999356;28;20491;-79
2022/08/13 06:25:54;;;;;;;2.53;2.33;;;;;;;28.96;28.28;99262.88;5001583;28;20479;-78
2022/08/13 06:28:21;;;;;;;4.10;1.97;;;;;;;29.17;28.07;99254.34;5000287;28;20464;-78
2022/08/13 06:30:48;;;;;;;2.17;1.97;;;;;;;29.42;27.84;99261.50;4991384;28;20498;-78
2022/08/13 06:33:14;;;;;;;3.90;1.97;;;;;;;29.63;27.76;99260.19;4994152;28;20563;-78
2022/08/13 06:35:40;;;;;;;2.90;2.70;;;;;;;29.75;27.55;99266.47;4992930;28;20988;-78
2022/08/13 06:38:06;;;;;;;1.90;1.80;;;;;;;29.87;27.53;99261.09;4992531;28;20236;-80
2022/08/13 06:40:35;;;;;;;3.23;2.30;;;;;;;30.08;27.36;99260.53;4999270;28;20283;-79
2022/08/13 06:43:01;;;;;;;2.20;1.77;;;;;;;30.25;26.71;99268.84;4999658;28;20493;-79
2022/08/13 06:45:27;;;;;;;2.17;1.97;;;;;;;30.50;26.65;99265.91;4998020;28;20486;-79
2022/08/13 06:47:53;;;;;;;4.00;2.10;;;;;;;30.82;26.59;99268.28;4998340;28;20464;-79
2022/08/13 06:50:19;;;;;;;3.37;2.03;;;;;;;31.12;25.96;99261.84;4998605;28;20491;-80
2022/08/13 06:52:44;;;;;;;6.93;2.00;;;;;;;31.32;25.75;99259.50;4999077;28;20452;-79
2022/08/13 06:55:10;;;;;;;2.97;2.10;;;;;;;31.52;25.76;99254.53;4998559;28;20237;-79
2022/08/13 06:57:37;;;;;;;1.77;1.67;;;;;;;31.62;25.31;99255.75;4998607;28;20201;-78
2022/08/13 07:00:08;;;;;;;2.73;2.13;;;;;;;31.52;25.32;99265.38;5001199;28;20237;-79
2022/08/13 07:02:35;;;;;;;1.97;1.87;;;;;;;31.30;25.13;99261.66;4998151;28;20510;-79
2022/08/13 07:05:00;;;;;;;1.63;1.53;;;;;;;31.13;25.37;99263.47;4999065;28;20977;-78
2022/08/13 07:07:27;;;;;;;2.50;1.70;;;;;;;31.01;25.99;99269.75;4997341;28;20454;-79
2022/08/13 07:09:53;;;;;;;2.27;2.07;;;;;;;31.04;25.73;99261.16;4998342;28;20210;-78
2022/08/13 07:12:19;;;;;;;3.00;1.80;;;;;;;30.98;26.05;99267.53;4998655;28;20460;-78
2022/08/13 07:14:45;;;;;;;2.60;2.40;;;;;;;30.86;25.80;99264.00;4998529;28;20488;-78
2022/08/13 07:17:11;;;;;;;1.77;1.67;;;;;;;30.86;25.60;99266.72;4996641;28;20666;-79
2022/08/13 07:19:37;;;;;;;6.30;2.77;;;;;;;30.86;25.63;99262.09;4998047;28;20236;-79
2022/08/13 07:22:05;;;;;;;1.83;1.73;;;;;;;30.97;25.60;99265.88;4998059;28;20316;-79
2022/08/13 07:24:32;;;;;;;3.23;1.90;;;;;;;30.96;25.43;99261.50;4996747;28;20456;-79
2022/08/13 07:27:07;;;;;;;1.70;1.60;;;;;;;30.93;25.56;99253.88;4996793;28;20472;-80
2022/08/13 07:29:36;;;;;;;2.13;2.03;;;;;;;30.83;25.35;99250.94;4996978;28;20452;-78
2022/08/13 07:32:06;;;;;;;3.70;2.00;;;;;;;30.77;25.48;99249.97;4995054;28;20460;-79
2022/08/13 07:34:35;;;;;;;2.00;1.80;;;;;;;30.94;25.37;99243.84;4993806;28;21065;-79
2022/08/13 07:37:03;;;;;;;3.67;1.60;;;;;;;31.14;25.00;99244.25;4993188;28;20478;-78
2022/08/13 07:39:30;;;;;;;1.83;1.73;;;;;;;31.31;24.83;99247.84;4994491;28;20487;-78
2022/08/13 07:41:56;;;;;;;2.20;1.80;;;;;;;31.46;24.36;99239.22;4994126;28;20846;-78
2022/08/13 07:44:23;;;;;;;2.10;1.90;;;;;;;31.57;24.30;99247.53;4994581;28;20456;-79
2022/08/13 07:46:54;;;;;;;3.97;2.20;;;;;;;31.62;24.60;99242.19;4992669;28;20464;-78
2022/08/13 07:49:22;;;;;;;2.50;2.17;;;;;;;31.65;24.69;99238.97;4994343;28;20832;-79
2022/08/13 07:51:49;;;;;;;2.33;1.83;;;;;;;31.69;24.39;99235.53;4994294;28;20471;-79
2022/08/13 07:54:15;;;;;;;4.60;2.27;;;;;;;31.83;24.58;99227.06;4994468;28;20539;-78
2022/08/13 07:56:42;;;;;;;4.10;1.77;;;;;;;32.02;24.00;99235.84;4993050;28;20533;-79
2022/08/13 07:59:12;;;;;;;3.60;2.87;;;;;;;32.28;24.07;99223.47;4994008;28;20448;-79
2022/08/13 08:01:50;;;;;;;4.73;2.20;;;;;;;32.58;23.42;99225.84;4993934;28;21395;-79
2022/08/13 08:04:17;;;;;;;2.72;1.70;;;;;;;32.84;23.26;99222.38;4992609;28;20480;-79
2022/08/13 08:06:47;;;;;;;2.03;1.70;;;;;;;32.93;22.71;99219.22;4990756;28;20209;-78
2022/08/13 08:09:22;;;;;;;3.83;2.20;;;;;;;32.86;22.82;99218.56;4990079;28;20540;-78
2022/08/13 08:14:32;;;;;;;3.77;2.27;;;;;;;32.58;23.06;99217.69;4993171;28;20825;-78
2022/08/13 08:17:01;;;;;;;2.23;2.03;;;;;;;32.53;22.76;99220.34;4991931;28;20987;-78
2022/08/13 08:19:27;;;;;;;2.30;2.00;;;;;;;32.57;23.01;99224.22;4993064;28;20510;-79
2022/08/13 08:21:56;;;;;;;2.20;2.00;;;;;;;32.57;23.09;99224.22;4993261;28;20460;-78
2022/08/13 08:24:23;;;;;;;3.33;2.50;;;;;;;32.57;22.95;99227.75;4992965;28;20467;-79
2022/08/13 08:26:49;;;;;;;2.13;1.90;;;;;;;32.50;23.38;99221.66;4992440;28;20520;-79
2022/08/13 08:29:15;;;;;;;2.37;2.17;;;;;;;32.49;23.03;99219.19;4993220;28;20463;-78
2022/08/13 08:31:41;;;;;;;2.10;2.00;;;;;;;32.54;23.25;99222.81;4992763;28;20463;-78
2022/08/13 08:34:08;;;;;;;2.55;2.30;;;;;;;32.60;23.05;99215.53;4991119;28;20484;-79
2022/08/13 08:36:37;;;;;;;3.93;2.37;;;;;;;32.55;23.07;99213.56;4990921;28;20225;-79
2022/08/13 08:44:34;;;;;;;2.50;2.20;;;;;;;32.16;23.92;99213.53;4992900;28;20476;-79
2022/08/13 08:47:01;;;;;;;2.10;2.00;;;;;;;32.03;23.69;99211.16;4991227;28;20459;-79
2022/08/13 08:49:30;;;;;;;2.57;1.80;;;;;;;31.77;23.82;99200.91;4992056;28;21423;-79
2022/08/13 08:51:57;;;;;;;1.70;1.60;;;;;;;31.78;24.00;99202.53;4992211;28;20459;-79
2022/08/13 08:54:23;;;;;;;2.20;2.03;;;;;;;31.56;24.62;99197.84;5007633;28;20456;-78
2022/08/13 08:56:54;;;;;;;1.97;1.70;;;;;;;31.08;24.70;99208.06;4991628;28;20464;-79
2022/08/13 08:59:35;;;;;;;2.00;1.80;;;;;;;30.74;25.24;99217.09;4992244;28;20508;-78
2022/08/13 09:02:01;;;;;;;2.30;2.10;;;;;;;30.58;26.24;99215.94;4989687;28;20476;-79
2022/08/13 09:04:32;;;;;;;4.40;2.33;;;;;;;30.38;26.18;99219.00;4991880;28;20533;-78
2022/08/13 09:06:58;;;;;;;2.33;1.80;;;;;;;30.32;26.51;99212.63;4991997;28;20205;-78
2022/08/13 09:09:25;;;;;;;3.73;3.13;;;;;;;30.35;26.60;99203.22;4992678;28;20467;-79
2022/08/13 09:11:55;;;;;;;2.33;1.93;;;;;;;30.41;26.24;99205.81;4992475;28;20610;-78
2022/08/13 09:14:32;;;;;;;2.13;1.67;;;;;;;30.50;26.32;99197.31;4992468;28;20451;-78
2022/08/13 09:16:59;;;;;;;3.03;2.10;;;;;;;30.53;26.26;99196.84;4991739;28;20577;-77
2022/08/13 09:19:27;;;;;;;2.33;2.10;;;;;;;30.54;26.38;99195.78;4996316;28;20619;-79
2022/08/13 09:21:52;;;;;;;2.50;2.30;;;;;;;30.53;26.14;99191.44;4996661;28;20824;-78
2022/08/13 09:24:24;;;;;;;2.90;2.03;;;;;;;30.42;26.34;99190.38;4995537;28;20975;-78
2022/08/13 09:26:51;;;;;;;6.13;2.63;;;;;;;30.43;26.53;99183.88;4994642;28;20240;-77
2022/08/13 09:29:19;;;;;;;3.60;2.47;;;;;;;30.48;26.34;99177.75;4995495;28;20464;-82
2022/08/13 09:31:50;;;;;;;2.53;2.33;;;;;;;30.47;26.63;99176.94;5000639;28;20454;-80
2022/08/13 09:34:17;;;;;;;6.03;2.10;;;;;;;30.56;26.41;99174.69;5005399;28;20460;-81
2022/08/13 09:36:44;;;;;;;3.10;2.13;;;;;;;30.75;26.56;99170.75;5005608;28;20468;-80
2022/08/13 09:39:21;;;;;;;2.63;2.43;;;;;;;30.91;25.81;99174.63;5004842;28;20948;-81
2022/08/13 09:41:49;;;;;;;2.27;2.07;;;;;;;31.04;25.34;99176.22;5007702;28;20460;-82
2022/08/13 09:44:18;;;;;;;2.70;1.70;;;;;;;31.17;25.75;99167.81;5008843;28;20491;-80
2022/08/13 09:46:45;;;;;;;4.20;2.27;;;;;;;31.29;25.69;99167.75;5008180;28;20448;-81
2022/08/13 09:49:11;;;;;;;2.77;2.37;;;;;;;31.41;25.12;99162.31;5008190;28;20524;-80
2022/08/13 09:51:37;;;;;;;1.83;1.70;;;;;;;31.44;25.02;99157.19;5008533;28;20555;-81
2022/08/13 09:54:05;;;;;;;2.70;2.40;;;;;;;31.38;24.44;99152.75;5009186;28;20444;-81
2022/08/13 09:56:37;;;;;;;2.83;2.13;;;;;;;31.31;24.96;99155.56;5006296;28;20471;-80
2022/08/13 09:59:03;;;;;;;3.57;1.87;;;;;;;31.40;24.63;99163.34;5000304;28;20617;-80
2022/08/13 10:01:28;;;;;;;4.80;2.00;;;;;;;31.49;24.69;99157.28;4999051;28;20563;-81
2022/08/13 10:03:53;;;;;;;2.03;1.87;;;;;;;31.48;23.90;99158.34;5003421;28;20459;-82
2022/08/13 10:06:19;;;;;;;1.80;1.50;;;;;;;31.52;24.02;99151.34;5002133;28;20265;-81
2022/08/13 10:08:46;;;;;;;3.10;2.40;;;;;;;31.58;23.50;99140.59;5000427;28;20677;-83
2022/08/13 10:11:14;;;;;;;2.77;1.90;;;;;;;31.68;23.79;99148.91;5003239;28;20215;-81
2022/08/13 10:13:40;;;;;;;2.73;1.87;;;;;;;31.74;23.91;99137.88;5004991;28;20476;-83
2022/08/13 10:16:05;;;;;;;3.00;2.40;;;;;;;31.85;24.19;99143.47;5001419;28;20597;-82
2022/08/13 10:18:34;;;;;;;1.90;1.80;;;;;;;31.93;23.53;99154.75;5001661;28;20873;-81
2022/08/13 10:20:59;;;;;;;2.13;1.93;;;;;;;31.91;23.44;99142.47;5002464;28;20237;-81
2022/08/13 10:23:24;;;;;;;2.50;2.30;;;;;;;32.01;23.23;99152.69;5003818;28;20494;-82
2022/08/13 10:25:52;;;;;;;1.93;1.33;;;;;;;32.09;23.69;99144.94;5002300;28;20244;-82
2022/08/13 10:28:32;;;;;;;2.70;1.70;;;;;;;32.15;22.97;99143.13;4999258;28;20201;-83
2022/08/13 10:31:05;;;;;;;3.60;3.30;;;;;;;32.31;22.92;99141.44;5002599;28;20460;-82
2022/08/13 10:33:32;;;;;;;2.33;1.63;;;;;;;32.55;22.63;99131.19;5004143;28;20523;-82
2022/08/13 10:35:59;;;;;;;1.93;1.83;;;;;;;32.72;20.73;99131.09;5002249;28;20507;-82
2022/08/13 10:38:28;;;;;;;1.50;1.40;;;;;;;32.80;20.13;99136.91;5004116;28;20725;-80
2022/08/13 10:40:57;;;;;;;3.17;2.07;;;;;;;32.85;20.85;99128.00;5003781;28;20475;-81
2022/08/13 10:43:23;;;;;;;2.13;1.73;;;;;;;32.96;21.21;99115.31;5019754;28;20483;-83
2022/08/13 10:45:49;;;;;;;2.37;1.60;;;;;;;33.08;22.03;99102.44;4997308;28;20532;-82
2022/08/13 10:48:15;;;;;;;1.73;1.63;;;;;;;33.11;22.01;99117.41;4998358;28;20204;-82
2022/08/13 10:50:41;;;;;;;2.47;1.57;;;;;;;33.14;21.39;99112.28;5000633;28;20467;-82
2022/08/13 10:53:07;;;;;;;1.70;1.40;;;;;;;33.28;20.52;99116.22;5004871;28;20217;-81
2022/08/13 10:55:35;;;;;;;2.10;1.77;;;;;;;33.30;21.18;99094.19;5002320;28;20480;-82
2022/08/13 10:58:03;;;;;;;1.77;1.63;;;;;;;33.21;19.94;99109.34;4999890;28;20201;-81
2022/08/13 11:00:29;;;;;;;1.40;1.30;;;;;;;33.08;18.51;99115.19;5002659;28;21007;-82
2022/08/13 11:02:55;;;;;;;2.50;2.07;;;;;;;33.02;18.59;99106.97;5004937;28;20506;-82
2022/08/13 11:05:22;;;;;;;2.00;1.50;;;;;;;32.97;18.94;99106.91;5006298;28;20248;-82
2022/08/13 11:07:48;;;;;;;2.33;1.57;;;;;;;32.98;20.11;99114.00;5003077;28;20223;-83
2022/08/13 11:10:15;;;;;;;1.63;1.53;;;;;;;32.89;20.67;99106.53;5004077;28;20460;-83
2022/08/13 11:12:50;;;;;;;1.60;1.50;;;;;;;32.93;21.19;99108.50;5002513;28;20213;-82
2022/08/13 11:15:20;;;;;;;2.70;2.20;;;;;;;33.08;21.65;99098.88;5004233;28;20489;-82
2022/08/13 11:17:59;;;;;;;2.10;1.60;;;;;;;33.15;21.94;99099.47;5001939;28;20452;-82
2022/08/13 11:20:27;;;;;;;3.37;1.80;;;;;;;33.17;21.81;99092.72;5002786;28;20515;-82
2022/08/13 11:22:54;;;;;;;1.80;1.70;;;;;;;33.20;21.87;99096.81;5004085;28;20455;-82
2022/08/13 11:25:20;;;;;;;1.70;1.60;;;;;;;33.13;21.90;99101.63;5001978;23;20912;-78
2022/08/13 11:27:46;;;;;;;1.73;1.53;;;;;;;33.00;21.81;99092.81;4935144;29;20477;-77
2022/08/13 11:30:14;;;;;;;4.40;1.90;;;;;;;32.97;21.85;99085.16;4943070;29;20468;-77
2022/08/13 11:32:40;;;;;;;1.93;1.80;;;;;;;32.94;21.74;99087.53;4948607;28;20211;-77
2022/08/13 11:35:07;;;;;;;3.60;2.07;;;;;;;33.01;21.45;99099.09;4948696;29;20748;-78
2022/08/13 11:37:34;;;;;;;2.23;1.90;;;;;;;33.01;20.94;99086.28;4945629;29;20853;-78
2022/08/13 11:39:59;;;;;;;3.10;2.20;;;;;;;32.98;21.60;99056.84;4947814;28;20486;-77
2022/08/13 11:42:25;;;;;;;2.13;1.20;;;;;;;33.00;20.71;99087.38;4943404;28;20489;-78
2022/08/13 11:44:50;;;;;;;1.53;1.40;;;;;;;33.09;19.35;99093.19;4948488;28;20210;-78
2022/08/13 11:47:16;;;;;;;1.37;1.27;;;;;;;33.10;19.04;99089.38;4929347;29;20330;-78
2022/08/13 11:49:41;;;;;;;1.87;1.30;;;;;;;33.19;18.61;99085.13;4948200;29;20211;-77
2022/08/13 11:52:07;;;;;;;2.97;1.90;;;;;;;33.16;19.33;99098.41;4948532;28;20807;-78
2022/08/13 11:54:33;;;;;;;2.80;2.60;;;;;;;33.09;20.31;99093.19;4946108;28;20262;-76
2022/08/13 11:57:06;;;;;;;4.30;2.23;;;;;;;32.79;21.34;99088.22;4945830;29;21061;-76
2022/08/13 11:59:31;;;;;;;2.03;1.83;;;;;;;32.68;21.19;99081.03;4948869;29;20814;-76